createdAt,value
2023-05-11T00:04:01.092Z,9.02
2023-05-11T00:10:03.472Z,12.10
2023-05-11T00:16:05.855Z,13.15
2023-05-11T00:22:08.192Z,20.85
2023-05-11T00:28:10.983Z,14.00
2023-05-11T00:40:16.064Z,13.82
2023-05-11T00:46:19.464Z,13.57
2023-05-11T00:52:22.509Z,11.90
2023-05-11T00:58:25.606Z,14.50
2023-05-11T01:04:27.995Z,13.40
2023-05-11T01:10:34.803Z,14.38
2023-05-11T01:16:41.033Z,9.13
2023-05-11T01:23:08.572Z,14.10
2023-05-11T01:29:46.417Z,11.68
2023-05-11T01:35:54.138Z,12.77
2023-05-11T01:41:58.809Z,12.13
2023-05-11T01:48:04.902Z,15.43
2023-05-11T01:54:09.094Z,10.02
2023-05-11T02:00:16.868Z,14.05
2023-05-11T02:06:21.789Z,14.65
2023-05-11T02:12:26.172Z,11.50
2023-05-11T02:18:29.764Z,10.38
2023-05-11T02:24:34.118Z,21.02
2023-05-11T02:30:45.047Z,22.38
2023-05-11T02:36:49.857Z,31.00
2023-05-11T02:42:59.031Z,12.95
2023-05-11T02:49:04.370Z,14.48
2023-05-11T02:55:07.612Z,20.05
2023-05-11T03:01:10.817Z,13.65
2023-05-11T03:07:13.958Z,14.15
2023-05-11T03:13:17.186Z,15.25
2023-05-11T03:19:20.120Z,12.77
2023-05-11T03:25:25.308Z,15.48
2023-05-11T03:31:27.887Z,16.00
2023-05-11T03:37:32.290Z,12.18
2023-05-11T03:43:37.110Z,15.32
2023-05-11T03:49:39.881Z,14.32
2023-05-11T03:55:42.420Z,18.77
2023-05-11T04:07:47.664Z,20.98
2023-05-11T04:19:52.542Z,18.70
2023-05-11T04:31:57.764Z,14.05
2023-05-11T04:38:03.345Z,12.25
2023-05-11T04:44:06.188Z,13.85
2023-05-11T04:50:09.132Z,17.75
2023-05-11T04:56:13.382Z,12.68
2023-05-11T05:02:15.982Z,8.50
2023-05-11T05:08:19.071Z,16.73
2023-05-11T05:14:21.478Z,9.63
2023-05-11T05:20:24.042Z,8.18
2023-05-11T05:26:26.789Z,15.98
2023-05-11T05:32:29.894Z,8.55
2023-05-11T05:38:32.212Z,5.70
2023-05-11T05:44:34.611Z,6.68
2023-05-11T05:50:38.442Z,6.63
2023-05-11T05:56:41.365Z,5.35
2023-05-11T06:02:43.980Z,9.32
2023-05-11T06:08:56.870Z,16.20
2023-05-11T06:14:59.120Z,9.32
2023-05-11T06:21:02.118Z,11.10
2023-05-11T06:27:06.914Z,6.47
2023-05-11T06:33:10.359Z,8.25
2023-05-11T06:39:14.504Z,9.65
2023-05-11T06:45:17.122Z,6.18
2023-05-11T06:51:21.481Z,11.43
2023-05-11T06:57:27.397Z,6.00
2023-05-11T07:09:32.216Z,6.65
2023-05-11T07:15:34.511Z,4.78
2023-05-11T07:21:37.262Z,6.63
2023-05-11T07:27:39.627Z,8.48
2023-05-11T07:33:41.793Z,5.97
2023-05-11T07:45:46.530Z,5.35
2023-05-11T07:51:48.960Z,6.55
2023-05-11T07:57:55.156Z,2.85
2023-05-11T08:03:57.609Z,4.57
2023-05-11T08:09:59.986Z,3.78
2023-05-11T08:16:02.427Z,7.63
2023-05-11T08:22:05.193Z,6.07
2023-05-11T08:28:07.685Z,5.03
2023-05-11T08:34:18.641Z,3.83
2023-05-11T08:40:23.587Z,7.13
2023-05-11T08:46:30.389Z,2.15
2023-05-11T08:52:32.866Z,2.60
2023-05-11T08:58:37.714Z,6.22
2023-05-11T09:04:40.150Z,3.97
2023-05-11T09:10:43.827Z,6.47
2023-05-11T09:16:46.195Z,3.35
2023-05-11T09:22:48.975Z,8.93
2023-05-11T09:29:02.996Z,7.85
2023-05-11T09:35:21.964Z,12.02
2023-05-11T09:41:24.507Z,3.92
2023-05-11T09:47:27.837Z,4.32
2023-05-11T09:53:38.952Z,5.18
2023-05-11T09:59:42.381Z,5.20
2023-05-11T10:06:00.500Z,3.80
2023-05-11T10:12:03.908Z,7.10
2023-05-11T10:18:07.390Z,6.03
2023-05-11T10:24:11.035Z,5.00
2023-05-11T10:30:13.659Z,12.23
2023-05-11T10:36:19.243Z,7.45
2023-05-11T10:42:57.635Z,3.65
2023-05-11T10:49:10.349Z,4.22
2023-05-11T11:01:42.368Z,2.70
2023-05-11T11:08:04.412Z,1.67
2023-05-11T11:14:09.727Z,4.13
2023-05-11T11:20:48.181Z,4.75
2023-05-11T11:26:50.850Z,2.63
2023-05-11T11:32:55.163Z,7.85
2023-05-11T11:39:01.734Z,7.95
2023-05-11T11:45:27.873Z,7.70
2023-05-11T11:51:33.946Z,3.80
2023-05-11T11:57:36.069Z,2.20
2023-05-11T12:09:41.504Z,4.07
2023-05-11T12:15:44.032Z,2.40
2023-05-11T12:21:46.178Z,3.45
2023-05-11T12:27:58.861Z,3.47
2023-05-11T12:34:01.479Z,2.40
2023-05-11T12:46:06.470Z,2.83
2023-05-11T12:52:10.520Z,4.55
2023-05-11T12:58:17.406Z,13.95
2023-05-11T13:04:29.429Z,3.45
2023-05-11T13:10:32.392Z,4.80
2023-05-11T13:16:35.019Z,3.50
2023-05-11T13:22:37.674Z,2.03
2023-05-11T13:28:39.889Z,4.75
2023-05-11T13:34:42.207Z,7.30
2023-05-11T13:40:44.567Z,3.15
2023-05-11T13:46:46.978Z,4.60
2023-05-11T13:52:49.265Z,7.07
2023-05-11T13:58:51.872Z,3.58
2023-05-11T14:04:54.122Z,9.27
2023-05-11T14:10:56.833Z,12.10
2023-05-11T14:16:59.289Z,14.15
2023-05-11T14:23:01.622Z,3.20
2023-05-11T14:29:03.927Z,4.18
2023-05-11T14:35:07.017Z,2.83
2023-05-11T14:41:10.085Z,6.15
2023-05-11T14:47:12.261Z,11.63
2023-05-11T14:53:14.472Z,2.55
2023-05-11T14:59:16.933Z,4.93
2023-05-11T15:05:19.334Z,4.22
2023-05-11T15:11:22.475Z,4.18
2023-05-11T15:17:25.185Z,3.78
2023-05-11T15:23:27.753Z,3.20
2023-05-11T15:29:30.220Z,3.00
2023-05-11T15:35:34.401Z,8.05
2023-05-11T15:41:36.777Z,4.47
2023-05-11T15:47:39.150Z,6.35
2023-05-11T15:53:41.306Z,3.67
2023-05-11T15:59:43.427Z,6.15
2023-05-11T16:05:46.475Z,3.60
2023-05-11T16:11:49.452Z,6.90
2023-05-11T16:17:52.030Z,2.67
2023-05-11T16:29:56.737Z,3.30
2023-05-11T16:35:59.035Z,7.30
2023-05-11T16:42:01.296Z,4.97
2023-05-11T16:48:03.596Z,6.65
2023-05-11T16:54:05.635Z,12.80
2023-05-11T17:00:09.323Z,12.18
2023-05-11T17:06:14.806Z,6.32
2023-05-11T17:12:19.054Z,4.70
2023-05-11T17:18:21.647Z,10.43
2023-05-11T17:24:23.742Z,11.73
2023-05-11T17:30:40.023Z,4.67
2023-05-11T17:36:48.960Z,3.50
2023-05-11T17:42:51.352Z,6.07
2023-05-11T17:48:54.496Z,7.55
2023-05-11T17:54:56.904Z,5.05
2023-05-11T18:00:59.326Z,7.88
2023-05-11T18:07:01.917Z,8.88
2023-05-11T18:13:04.626Z,6.55
2023-05-11T18:25:09.808Z,7.85
2023-05-11T18:31:12.648Z,6.72
2023-05-11T18:37:16.471Z,8.52
2023-05-11T18:43:18.755Z,8.00
2023-05-11T18:49:21.116Z,6.20
2023-05-11T18:55:23.587Z,4.47
2023-05-11T19:01:36.189Z,7.07
2023-05-11T19:07:42.780Z,6.18
2023-05-11T19:13:45.333Z,5.75
2023-05-11T19:19:47.613Z,7.22
2023-05-11T19:25:50.780Z,7.40
2023-05-11T19:31:53.687Z,13.35
2023-05-11T19:37:55.929Z,3.85
2023-05-11T19:43:58.300Z,11.45
2023-05-11T19:50:00.535Z,4.53
2023-05-11T19:56:02.678Z,4.88
2023-05-11T20:02:05.240Z,7.50
2023-05-11T20:14:10.239Z,7.47
2023-05-11T20:20:12.718Z,6.57
2023-05-11T20:26:14.956Z,9.43
2023-05-11T20:32:17.920Z,15.73
2023-05-11T20:38:20.035Z,10.38
2023-05-11T20:44:22.170Z,4.78
2023-05-11T20:50:24.938Z,10.23
2023-05-11T21:02:29.310Z,8.07
2023-05-11T21:08:31.765Z,6.22
2023-05-11T21:14:34.200Z,7.00
2023-05-11T21:20:36.564Z,6.13
2023-05-11T21:26:38.926Z,9.40
2023-05-11T21:32:41.237Z,7.30
2023-05-11T21:38:43.703Z,6.47
2023-05-11T21:44:45.905Z,4.78
2023-05-11T21:50:55.663Z,11.35
2023-05-11T21:56:57.790Z,8.40
2023-05-11T22:03:00.010Z,5.57
2023-05-11T22:09:02.898Z,10.00
2023-05-11T22:15:08.681Z,10.73
2023-05-11T22:21:11.056Z,15.80
2023-05-11T22:27:15.996Z,10.57
2023-05-11T22:33:18.194Z,7.38
2023-05-11T22:39:21.345Z,10.18
2023-05-11T22:45:23.611Z,4.85
2023-05-11T22:51:25.758Z,8.40
2023-05-11T22:57:28.108Z,8.65
2023-05-11T23:03:30.717Z,7.43
2023-05-11T23:09:34.335Z,10.50
2023-05-11T23:15:36.779Z,6.10
2023-05-11T23:21:38.919Z,9.15
2023-05-11T23:27:41.223Z,5.30
2023-05-11T23:33:43.533Z,9.65
2023-05-11T23:39:45.966Z,14.30
2023-05-11T23:45:48.123Z,6.47
2023-05-11T23:51:50.476Z,7.63
2023-05-11T23:57:52.817Z,8.43
